Time;durP1;ratioP1;P1;durP2;ratioP2;P2;SDS_P1;SDS_P2;PMS_P1;PMS_P2;Temp;Humidity;BMP_temperature;BMP_pressure;BME280_temperature;BME280_humidity;BME280_pressure;Samples;Min_cycle;Max_cycle;Signal;HPM_P1;HPM_P2
2022/11/21 00:00:48;;;;;;;3.88;0.52;;;6.00;99.90;;;;;;5020709;28;20391;-53
2022/11/21 00:03:14;;;;;;;4.25;0.40;;;5.90;99.90;;;;;;5021618;28;20914;-53
2022/11/21 00:05:42;;;;;;;3.80;0.50;;;5.90;99.90;;;;;;5019266;28;20393;-58
2022/11/21 00:08:09;;;;;;;4.43;0.50;;;6.00;99.90;;;;;;5021076;28;20860;-53
2022/11/21 00:10:36;;;;;;;5.10;0.60;;;6.00;25.20;;;;;;5021404;28;20401;-53
2022/11/21 00:13:02;;;;;;;4.20;0.47;;;6.10;49.80;;;;;;5016265;28;20428;-53
2022/11/21 00:15:27;;;;;;;5.40;0.50;;;6.50;12.80;;;;;;5020563;28;20379;-53
2022/11/21 00:17:53;;;;;;;4.80;0.63;;;7.30;1.00;;;;;;5020387;28;20404;-52
2022/11/21 00:20:20;;;;;;;5.15;0.50;;;6.40;26.00;;;;;;5019405;28;20389;-53
2022/11/21 00:22:46;;;;;;;3.70;0.40;;;6.20;16.20;;;;;;5020568;28;20402;-52
2022/11/21 00:25:12;;;;;;;5.20;0.50;;;6.30;1.00;;;;;;5021037;28;20393;-53
2022/11/21 00:27:38;;;;;;;6.10;0.60;;;6.40;51.50;;;;;;5018665;28;20396;-60
2022/11/21 00:30:06;;;;;;;3.70;0.40;;;6.50;1.00;;;;;;5020531;28;20380;-52
2022/11/21 00:32:31;;;;;;;3.70;0.40;;;6.40;1.00;;;;;;5020411;28;20417;-53
2022/11/21 00:34:57;;;;;;;3.50;0.30;;;6.40;1.00;;;;;;5018363;28;20488;-53
2022/11/21 00:37:22;;;;;;;4.30;0.70;;;6.20;99.90;;;;;;5020887;28;20447;-53
2022/11/21 00:39:48;;;;;;;3.70;0.40;;;6.10;99.90;;;;;;5019496;28;20380;-53
2022/11/21 00:42:14;;;;;;;4.33;0.50;;;6.00;99.90;;;;;;5019282;28;20892;-52
2022/11/21 00:44:39;;;;;;;5.80;0.60;;;6.00;99.90;;;;;;5020528;28;20407;-58
2022/11/21 00:47:05;;;;;;;3.60;0.30;;;6.10;99.90;;;;;;5001434;28;20778;-52
2022/11/21 00:49:30;;;;;;;4.30;0.73;;;6.10;99.90;;;;;;5019549;28;20744;-55
2022/11/21 00:51:56;;;;;;;3.77;0.50;;;6.10;99.90;;;;;;5019911;28;20415;-52
2022/11/21 00:54:22;;;;;;;3.80;0.40;;;6.00;99.90;;;;;;5015842;28;20405;-52
2022/11/21 00:56:47;;;;;;;5.30;0.43;;;5.90;99.90;;;;;;5019485;28;20399;-53
2022/11/21 00:59:13;;;;;;;4.40;0.50;;;5.80;99.90;;;;;;5020347;28;20448;-54
2022/11/21 01:01:38;;;;;;;3.80;0.40;;;6.30;99.90;;;;;;5018216;28;20385;-59
2022/11/21 01:04:04;;;;;;;4.10;0.30;;;5.70;99.90;;;;;;5020500;28;20455;-53
2022/11/21 01:06:30;;;;;;;3.70;0.40;;;6.00;99.90;;;;;;5019900;28;20877;-53
2022/11/21 01:08:55;;;;;;;4.73;0.43;;;5.70;99.90;;;;;;5017819;28;20379;-52
2022/11/21 01:11:21;;;;;;;4.15;0.50;;;5.60;99.90;;;;;;5020480;28;20857;-55
2022/11/21 01:13:48;;;;;;;4.28;0.40;;;5.60;99.90;;;;;;5018175;28;20439;-53
2022/11/21 01:16:22;;;;;;;4.95;0.60;;;5.80;99.90;;;;;;5018451;28;20696;-52
2022/11/21 01:18:48;;;;;;;4.40;0.30;;;5.70;99.90;;;;;;5016703;28;20389;-52
2022/11/21 01:21:19;;;;;;;5.03;0.50;;;6.00;99.90;;;;;;5018552;28;20442;-53
2022/11/21 01:23:46;;;;;;;3.45;0.30;;;5.80;99.90;;;;;;5015618;28;20393;-52
2022/11/21 01:26:14;;;;;;;3.80;0.47;;;5.80;99.90;;;;;;5018034;28;20739;-52
2022/11/21 01:28:40;;;;;;;3.92;0.50;;;5.90;99.90;;;;;;5019442;28;20540;-59
2022/11/21 01:31:11;;;;;;;5.20;0.60;;;6.50;1.00;;;;;;5018073;28;20426;-52
2022/11/21 01:33:37;;;;;;;4.10;0.40;;;7.40;1.00;;;;;;5017886;28;20431;-52
2022/11/21 01:36:17;;;;;;;3.50;0.40;;;6.60;1.00;;;;;;5014593;28;20403;-52
2022/11/21 01:38:45;;;;;;;4.30;0.40;;;7.10;1.00;;;;;;5014546;28;20779;-57
2022/11/21 01:41:13;;;;;;;4.20;0.30;;;7.00;1.00;;;;;;5018702;28;20457;-54
2022/11/21 01:43:39;;;;;;;3.70;0.50;;;5.80;1.00;;;;;;5019841;28;20425;-59
2022/11/21 01:46:14;;;;;;;4.50;0.50;;;5.90;1.00;;;;;;5017485;28;20381;-52
2022/11/21 01:49:03;;;;;;;4.00;0.50;;;5.70;1.00;;;;;;5017139;28;20384;-59
2022/11/21 01:51:29;;;;;;;4.60;0.55;;;5.70;1.00;;;;;;5017076;28;20393;-52
2022/11/21 01:54:17;;;;;;;4.15;0.70;;;5.60;1.00;;;;;;5017068;28;20407;-52
2022/11/21 01:56:58;;;;;;;3.50;0.50;;;5.60;1.00;;;;;;5014787;28;20384;-58
2022/11/21 01:59:36;;;;;;;4.07;0.50;;;7.10;1.00;;;;;;5015460;28;20373;-53
2022/11/21 02:02:05;;;;;;;5.60;0.60;;;6.80;1.00;;;;;;5014227;28;20925;-52
2022/11/21 02:04:32;;;;;;;7.43;0.63;;;5.70;1.00;;;;;;5018687;28;20418;-53
2022/11/21 02:07:00;;;;;;;3.40;0.30;;;5.70;1.00;;;;;;5018981;28;20462;-52
2022/11/21 02:09:27;;;;;;;3.60;0.50;;;5.90;1.00;;;;;;5017977;28;20388;-52
2022/11/21 02:12:00;;;;;;;4.00;0.40;;;5.80;1.00;;;;;;5017186;28;20405;-53
2022/11/21 02:14:27;;;;;;;3.70;0.40;;;6.20;1.00;;;;;;5015874;28;20532;-52
2022/11/21 02:16:56;;;;;;;4.40;0.60;;;5.80;1.00;;;;;;5017532;28;20821;-53
2022/11/21 02:19:39;;;;;;;6.10;0.40;;;5.90;1.00;;;;;;5019454;28;20383;-52
2022/11/21 02:22:14;;;;;;;4.50;0.47;;;5.90;1.00;;;;;;5015154;28;20472;-53
2022/11/21 02:24:48;;;;;;;5.07;0.60;;;7.20;1.00;;;;;;5016998;28;20385;-59
2022/11/21 02:27:14;;;;;;;3.40;0.30;;;5.80;1.00;;;;;;5017842;28;20379;-53
2022/11/21 02:29:41;;;;;;;3.90;0.60;;;5.80;1.00;;;;;;5019644;28;20383;-60
2022/11/21 02:32:07;;;;;;;3.73;0.47;;;6.00;1.00;;;;;;5017910;28;20440;-53
2022/11/21 02:34:32;;;;;;;3.80;0.57;;;7.10;1.00;;;;;;5018151;28;20403;-53
2022/11/21 02:37:00;;;;;;;5.53;0.40;;;6.10;1.00;;;;;;5018636;28;20391;-52
2022/11/21 02:39:34;;;;;;;3.70;0.60;;;5.90;1.00;;;;;;5021421;28;20509;-53
2022/11/21 02:42:13;;;;;;;4.30;0.60;;;5.90;1.00;;;;;;5016967;28;20665;-53
2022/11/21 02:45:06;;;;;;;4.97;0.88;;;5.90;1.00;;;;;;5012211;28;20450;-56
2022/11/21 02:47:33;;;;;;;4.20;0.50;;;5.90;1.00;;;;;;4978294;28;20548;-52
2022/11/21 02:50:02;;;;;;;4.50;0.50;;;5.60;1.00;;;;;;5011278;28;20442;-54
2022/11/21 02:52:27;;;;;;;3.90;0.50;;;5.60;1.00;;;;;;5012163;28;20458;-54
2022/11/21 02:54:53;;;;;;;3.50;0.40;;;5.50;1.00;;;;;;5011135;28;20598;-53
2022/11/21 02:57:19;;;;;;;4.20;0.30;;;5.70;1.00;;;;;;5012099;28;20490;-52
2022/11/21 02:59:44;;;;;;;3.90;0.40;;;5.30;1.00;;;;;;5011139;28;20399;-56
2022/11/21 03:02:10;;;;;;;5.30;0.40;;;5.30;1.00;;;;;;5012144;28;20471;-52
2022/11/21 03:04:35;;;;;;;3.30;0.23;;;5.30;1.00;;;;;;5012270;28;20429;-53
2022/11/21 03:07:01;;;;;;;3.40;0.30;;;5.30;1.00;;;;;;5011217;28;20385;-52
2022/11/21 03:09:26;;;;;;;3.40;0.30;;;5.40;1.00;;;;;;5012028;28;20803;-53
2022/11/21 03:11:52;;;;;;;3.50;0.30;;;5.50;1.00;;;;;;5011535;28;20407;-52
2022/11/21 03:14:18;;;;;;;3.40;0.30;;;5.40;1.00;;;;;;5011426;28;20498;-52
2022/11/21 03:16:43;;;;;;;5.50;0.30;;;5.70;1.00;;;;;;5010950;28;20862;-58
2022/11/21 03:19:09;;;;;;;4.20;0.30;;;5.20;1.00;;;;;;5011645;28;20396;-52
2022/11/21 03:21:34;;;;;;;3.40;0.30;;;5.30;1.00;;;;;;5011492;28;20383;-52
2022/11/21 03:24:00;;;;;;;3.40;0.30;;;5.40;1.00;;;;;;5010025;28;21012;-52
2022/11/21 03:26:25;;;;;;;4.03;0.40;;;5.40;1.00;;;;;;5011182;28;20438;-52
2022/11/21 03:28:51;;;;;;;4.90;0.50;;;5.30;1.00;;;;;;5010420;28;20395;-52
2022/11/21 03:31:17;;;;;;;3.80;0.40;;;5.30;1.00;;;;;;5011304;28;20375;-53
2022/11/21 03:33:42;;;;;;;4.60;0.40;;;5.30;1.00;;;;;;5010787;28;20413;-60
2022/11/21 03:36:08;;;;;;;3.70;0.20;;;5.30;1.00;;;;;;4993419;28;20411;-54
2022/11/21 03:38:33;;;;;;;4.20;0.20;;;5.30;1.00;;;;;;5011114;28;20396;-53
2022/11/21 03:41:28;;;;;;;3.50;0.40;;;5.20;1.00;;;;;;5010249;28;20871;-53
2022/11/21 03:43:54;;;;;;;3.40;0.30;;;5.30;1.00;;;;;;5010365;28;20882;-53
2022/11/21 03:46:20;;;;;;;4.60;0.50;;;5.30;1.00;;;;;;5010453;28;20444;-53
2022/11/21 03:48:45;;;;;;;3.83;0.35;;;5.40;1.00;;;;;;5010355;28;20480;-53
2022/11/21 03:51:11;;;;;;;3.40;0.40;;;5.40;1.00;;;;;;5010633;28;20412;-53
2022/11/21 03:53:37;;;;;;;3.40;0.40;;;5.40;1.00;;;;;;5010794;28;21374;-54
2022/11/21 03:56:02;;;;;;;3.50;0.38;;;5.40;1.00;;;;;;5003925;28;20888;-51
2022/11/21 03:58:28;;;;;;;4.47;0.50;;;5.50;1.00;;;;;;5010260;28;20436;-52
2022/11/21 04:00:53;;;;;;;4.30;0.40;;;7.00;1.00;;;;;;5009735;28;20858;-51
2022/11/21 04:03:19;;;;;;;3.50;0.30;;;6.20;1.00;;;;;;5010667;28;20403;-53
2022/11/21 04:05:44;;;;;;;3.90;0.50;;;5.60;1.00;;;;;;5010085;28;20393;-59
2022/11/21 04:08:10;;;;;;;3.77;0.40;;;5.70;1.00;;;;;;5010835;28;20696;-53
2022/11/21 04:10:36;;;;;;;3.50;0.43;;;7.30;1.00;;;;;;5010654;28;20468;-52
2022/11/21 04:13:01;;;;;;;3.40;0.30;;;5.80;1.00;;;;;;5009637;28;20577;-51
2022/11/21 04:15:27;;;;;;;3.70;0.40;;;5.80;99.90;;;;;;5010865;28;20425;-51
2022/11/21 04:17:52;;;;;;;4.30;0.30;;;5.90;99.90;;;;;;5009734;28;20799;-51
2022/11/21 04:20:18;;;;;;;3.60;0.40;;;5.90;99.90;;;;;;5010684;28;20384;-53
2022/11/21 04:22:43;;;;;;;4.57;0.30;;;6.00;99.90;;;;;;5009893;28;20403;-59
2022/11/21 04:25:09;;;;;;;3.88;0.47;;;6.00;99.90;;;;;;5010037;28;20396;-53
2022/11/21 04:27:35;;;;;;;3.70;0.60;;;6.00;99.90;;;;;;5010232;28;20421;-53
2022/11/21 04:30:01;;;;;;;3.60;0.40;;;6.00;99.90;;;;;;5009358;28;20459;-51
2022/11/21 04:32:27;;;;;;;3.60;0.40;;;6.90;99.90;;;;;;5010217;28;20388;-56
2022/11/21 04:34:52;;;;;;;3.50;0.40;;;6.00;99.90;;;;;;5009480;28;20420;-52
2022/11/21 04:37:18;;;;;;;3.70;0.50;;;6.90;99.90;;;;;;5010031;28;20393;-53
2022/11/21 04:39:43;;;;;;;4.80;0.43;;;5.90;1.00;;;;;;5009842;28;20460;-59
2022/11/21 04:42:09;;;;;;;4.00;0.30;;;6.00;1.00;;;;;;5012889;28;20833;-55
2022/11/21 04:44:36;;;;;;;5.10;0.47;;;6.00;1.00;;;;;;5012160;28;20517;-56
2022/11/21 04:47:02;;;;;;;4.40;0.50;;;6.00;1.00;;;;;;5009242;28;21325;-52
2022/11/21 04:49:27;;;;;;;4.73;0.43;;;6.00;1.00;;;;;;5010473;28;20408;-52
2022/11/21 04:51:53;;;;;;;3.70;0.55;;;5.90;1.00;;;;;;5014577;28;20400;-50
2022/11/21 04:54:18;;;;;;;4.00;0.50;;;6.00;1.00;;;;;;5016543;28;20463;-52
2022/11/21 04:56:44;;;;;;;4.43;1.00;;;6.10;1.00;;;;;;5019973;28;20914;-59
2022/11/21 04:59:11;;;;;;;4.00;0.60;;;6.20;1.00;;;;;;5019347;28;20432;-52
2022/11/21 05:01:37;;;;;;;4.55;0.60;;;6.20;1.00;;;;;;5017948;28;20387;-52
2022/11/21 05:04:03;;;;;;;4.15;0.90;;;7.60;1.00;;;;;;5029094;28;20388;-53
2022/11/21 05:06:29;;;;;;;4.53;0.90;;;6.20;1.00;;;;;;5010830;28;20403;-54
2022/11/21 05:08:54;;;;;;;5.55;0.75;;;6.30;1.00;;;;;;5008177;28;20401;-53
2022/11/21 05:14:04;;;;;;;5.32;0.98;;;6.40;1.00;;;;;;4989725;28;20511;-52
2022/11/21 05:16:32;;;;;;;5.88;1.20;;;6.50;1.00;;;;;;5005976;28;20480;-52
2022/11/21 05:18:57;;;;;;;6.47;1.10;;;6.60;1.00;;;;;;5022020;28;20390;-54
2022/11/21 05:21:23;;;;;;;4.70;1.15;;;6.60;1.00;;;;;;4989788;28;20387;-52
2022/11/21 05:23:48;;;;;;;5.73;1.10;;;6.60;1.00;;;;;;5006639;28;20491;-52
2022/11/21 05:26:14;;;;;;;4.22;0.88;;;6.60;1.00;;;;;;5002815;28;20409;-52
2022/11/21 05:28:40;;;;;;;4.50;1.20;;;6.80;1.00;;;;;;4990002;28;20872;-52
2022/11/21 05:31:05;;;;;;;5.50;1.17;;;6.60;1.00;;;;;;4997851;28;20455;-52
2022/11/21 05:33:31;;;;;;;7.70;1.60;;;7.20;1.00;;;;;;5008131;28;20787;-53
2022/11/21 05:35:57;;;;;;;7.00;1.85;;;6.70;1.00;;;;;;5007795;28;20956;-54
2022/11/21 05:38:22;;;;;;;4.90;1.38;;;6.80;1.00;;;;;;4990165;28;20497;-52
2022/11/21 05:40:50;;;;;;;5.13;1.30;;;6.70;1.00;;;;;;4989113;28;20674;-53
2022/11/21 05:45:59;;;;;;;7.27;1.60;;;6.80;1.00;;;;;;5001179;28;20543;-52
2022/11/21 05:48:25;;;;;;;5.13;1.35;;;6.70;99.90;;;;;;4996762;28;20414;-53
2022/11/21 05:50:51;;;;;;;5.90;1.20;;;6.70;1.00;;;;;;4988683;28;20406;-52
2022/11/21 05:53:17;;;;;;;5.72;0.98;;;6.70;99.90;;;;;;4979540;28;20729;-53
2022/11/21 05:55:43;;;;;;;5.60;1.23;;;7.80;99.90;;;;;;4989317;28;20422;-53
2022/11/21 05:58:09;;;;;;;6.38;1.13;;;7.70;1.00;;;;;;4987741;28;20406;-52
2022/11/21 06:00:36;;;;;;;7.25;1.50;;;6.70;99.90;;;;;;5010338;28;20951;-52
2022/11/21 06:05:46;;;;;;;6.10;1.30;;;6.50;99.90;;;;;;4999565;28;20408;-58
2022/11/21 06:08:11;;;;;;;5.90;1.43;;;6.50;99.90;;;;;;5012202;28;20409;-52
2022/11/21 06:10:37;;;;;;;7.70;1.40;;;6.60;99.90;;;;;;5019525;28;20487;-52
2022/11/21 06:13:02;;;;;;;6.80;1.37;;;6.50;99.90;;;;;;5004597;28;21303;-54
2022/11/21 06:15:29;;;;;;;7.00;1.23;;;6.50;99.90;;;;;;5010752;28;20414;-55
2022/11/21 06:17:54;;;;;;;6.80;1.20;;;6.20;99.90;;;;;;5006929;28;20488;-52
2022/11/21 06:20:20;;;;;;;5.88;1.17;;;6.30;99.90;;;;;;5007257;28;20874;-56
2022/11/21 06:22:46;;;;;;;3.97;0.83;;;6.20;99.90;;;;;;5008967;28;20480;-58
2022/11/21 06:25:11;;;;;;;5.10;0.90;;;6.20;99.90;;;;;;5008454;28;20885;-52
2022/11/21 06:27:37;;;;;;;5.00;1.20;;;6.20;99.90;;;;;;5008647;28;20468;-52
2022/11/21 06:30:03;;;;;;;5.63;1.40;;;6.20;99.90;;;;;;5008220;28;20777;-53
2022/11/21 06:32:29;;;;;;;9.18;1.38;;;6.30;99.90;;;;;;5008743;28;20396;-53
2022/11/21 06:34:54;;;;;;;4.67;1.00;;;6.30;99.90;;;;;;5008190;28;20409;-53
2022/11/21 06:37:20;;;;;;;7.43;1.20;;;6.50;99.90;;;;;;5008799;28;20873;-53
2022/11/21 06:39:45;;;;;;;6.20;1.27;;;6.40;99.90;;;;;;5008571;28;20384;-58
2022/11/21 06:42:11;;;;;;;7.10;1.30;;;6.50;99.90;;;;;;5008480;28;20416;-52
2022/11/21 06:44:37;;;;;;;7.53;1.70;;;6.90;99.90;;;;;;5008955;28;20397;-52
2022/11/21 06:47:02;;;;;;;4.60;1.10;;;6.70;99.90;;;;;;5007946;28;20392;-54
2022/11/21 06:49:28;;;;;;;5.20;1.10;;;6.70;99.90;;;;;;5009179;28;20420;-52
2022/11/21 06:51:53;;;;;;;6.00;1.40;;;6.50;99.90;;;;;;5007971;28;20740;-53
2022/11/21 06:54:19;;;;;;;5.60;1.37;;;6.60;99.90;;;;;;5007341;28;20408;-52
2022/11/21 06:56:44;;;;;;;6.85;1.48;;;6.60;99.90;;;;;;5009017;28;20488;-56
2022/11/21 06:59:10;;;;;;;5.97;1.43;;;6.60;99.90;;;;;;5008121;28;20737;-53
2022/11/21 07:01:36;;;;;;;5.97;1.60;;;6.60;99.90;;;;;;5008745;28;20807;-52
2022/11/21 07:04:01;;;;;;;6.40;1.50;;;6.60;99.90;;;;;;5005657;28;20407;-53
2022/11/21 07:06:27;;;;;;;6.60;1.23;;;6.70;99.90;;;;;;5012776;28;20798;-53
2022/11/21 07:08:53;;;;;;;5.50;1.23;;;6.90;99.90;;;;;;5019433;28;20395;-53
2022/11/21 07:11:19;;;;;;;4.85;1.15;;;6.80;99.90;;;;;;5008844;28;20435;-53
2022/11/21 07:13:44;;;;;;;5.50;1.23;;;6.70;99.90;;;;;;5013840;28;20454;-53
2022/11/21 07:16:13;;;;;;;4.45;0.80;;;6.80;76.30;;;;;;5027380;28;20406;-53
2022/11/21 07:18:40;;;;;;;6.47;1.10;;;6.80;1.00;;;;;;5028344;28;20498;-54
2022/11/21 07:21:06;;;;;;;5.30;1.20;;;7.60;1.00;;;;;;5027305;28;20384;-53
2022/11/21 07:23:33;;;;;;;4.50;0.90;;;6.90;1.00;;;;;;5012477;28;20497;-53
2022/11/21 07:26:00;;;;;;;4.85;1.00;;;6.90;90.00;;;;;;5010008;28;20832;-53
2022/11/21 07:28:28;;;;;;;4.85;1.00;;;6.80;33.50;;;;;;5012068;28;20387;-53
2022/11/21 07:30:56;;;;;;;5.63;1.50;;;6.80;60.00;;;;;;5011333;28;20389;-54
2022/11/21 07:33:21;;;;;;;7.40;1.50;;;6.80;1.00;;;;;;5011803;28;20794;-52
2022/11/21 07:35:47;;;;;;;5.80;1.55;;;8.00;1.00;;;;;;5011498;28;20405;-59
2022/11/21 07:38:13;;;;;;;7.50;1.30;;;7.00;1.00;;;;;;5011272;28;20389;-53
2022/11/21 07:40:38;;;;;;;5.82;1.60;;;6.90;99.90;;;;;;5027456;28;20446;-55
2022/11/21 07:43:05;;;;;;;5.45;1.50;;;7.00;99.90;;;;;;5031012;28;20468;-53
2022/11/21 07:45:31;;;;;;;8.00;1.60;;;7.00;99.90;;;;;;5031731;28;20406;-53
2022/11/21 07:48:02;;;;;;;6.17;1.30;;;7.10;1.00;;;;;;5031038;28;20883;-53
2022/11/21 07:50:28;;;;;;;7.10;1.40;;;7.20;1.00;;;;;;5031058;28;20383;-55
2022/11/21 07:53:02;;;;;;;5.28;1.25;;;7.10;99.90;;;;;;5030623;28;20855;-52
2022/11/21 07:55:29;;;;;;;7.15;1.40;;;7.30;99.90;;;;;;5031377;28;20402;-56
2022/11/21 07:58:03;;;;;;;5.32;1.40;;;7.50;99.90;;;;;;5030787;28;20391;-53
2022/11/21 08:00:30;;;;;;;8.03;1.53;;;7.50;1.00;;;;;;5031329;28;20478;-53
2022/11/21 08:02:56;;;;;;;6.00;1.20;;;7.60;1.00;;;;;;5030561;28;20387;-53
2022/11/21 08:05:22;;;;;;;7.00;1.20;;;7.90;99.90;;;;;;5031818;28;20379;-52
2022/11/21 08:07:48;;;;;;;5.13;1.50;;;;;;;;;;5030722;28;20387;-59
2022/11/21 08:10:14;;;;;;;11.00;1.70;;;9.20;1.00;;;;;;5031421;28;20386;-53
2022/11/21 08:12:40;;;;;;;5.10;1.00;;;9.70;1.00;;;;;;5030761;28;20391;-53
2022/11/21 08:15:06;;;;;;;7.82;1.20;;;10.50;1.00;;;;;;5011554;28;20990;-54
2022/11/21 08:17:32;;;;;;;6.53;1.20;;;10.20;1.00;;;;;;5011064;28;20476;-53
2022/11/21 08:20:00;;;;;;;5.55;0.95;;;9.40;1.00;;;;;;5010243;28;20885;-53
2022/11/21 08:22:26;;;;;;;5.93;1.20;;;9.30;1.00;;;;;;5010648;28;20463;-53
2022/11/21 08:24:54;;;;;;;7.68;1.05;;;9.20;1.00;;;;;;5010482;28;20582;-55
2022/11/21 08:27:21;;;;;;;6.75;1.13;;;9.60;1.00;;;;;;5011026;28;20417;-55
2022/11/21 08:29:47;;;;;;;5.57;1.10;;;10.70;1.00;;;;;;5010581;28;20391;-59
2022/11/21 08:32:13;;;;;;;5.87;0.80;;;11.50;1.00;;;;;;5010546;28;20389;-53
2022/11/21 08:34:39;;;;;;;6.72;0.90;;;11.30;1.00;;;;;;5010741;28;20455;-53
2022/11/21 08:37:04;;;;;;;5.83;0.80;;;11.60;1.00;;;;;;5009799;28;20428;-53
2022/11/21 08:39:30;;;;;;;6.50;0.90;;;12.00;1.00;;;;;;5010390;28;20435;-53
2022/11/21 08:42:02;;;;;;;7.87;0.97;;;11.80;1.00;;;;;;5009612;28;20412;-54
2022/11/21 08:44:29;;;;;;;6.32;0.90;;;12.30;1.00;;;;;;5010587;28;20397;-53
2022/11/21 08:46:55;;;;;;;9.05;1.05;;;12.00;1.00;;;;;;5009517;28;20381;-53
2022/11/21 08:49:21;;;;;;;5.80;1.33;;;12.00;1.00;;;;;;5010385;28;20385;-54
2022/11/21 08:51:48;;;;;;;6.60;1.10;;;12.60;1.00;;;;;;5009933;28;20723;-60
2022/11/21 08:54:23;;;;;;;7.50;1.10;;;12.80;1.00;;;;;;5009962;28;20424;-54
2022/11/21 08:56:49;;;;;;;8.20;1.10;;;12.60;1.00;;;;;;5009509;28;20403;-60
2022/11/21 08:59:16;;;;;;;6.78;1.00;;;12.60;1.00;;;;;;5010163;28;20526;-54
2022/11/21 09:01:42;;;;;;;6.30;1.00;;;13.30;1.00;;;;;;5010077;28;20392;-55
2022/11/21 09:04:08;;;;;;;6.60;1.10;;;13.00;1.00;;;;;;5009094;28;20393;-53
2022/11/21 09:06:34;;;;;;;11.80;1.90;;;12.30;1.00;;;;;;5010075;28;20851;-53
2022/11/21 09:09:00;;;;;;;6.28;1.30;;;12.90;1.00;;;;;;5009062;28;20392;-53
2022/11/21 09:11:26;;;;;;;7.90;1.20;;;13.10;1.00;;;;;;5010322;28;20484;-53
2022/11/21 09:19:22;;;;;;;8.35;1.00;;;12.10;1.00;;;;;;5029988;28;20744;-52
2022/11/21 09:21:49;;;;;;;6.72;0.80;;;11.80;1.00;;;;;;5029606;28;20390;-59
2022/11/21 09:24:15;;;;;;;9.18;1.20;;;10.90;1.00;;;;;;5029420;28;20419;-52
2022/11/21 09:26:40;;;;;;;6.60;1.00;;;11.10;1.00;;;;;;5029650;28;20419;-52
2022/11/21 09:29:06;;;;;;;7.25;0.90;;;11.20;1.00;;;;;;5028615;28;20871;-53
2022/11/21 09:31:32;;;;;;;8.57;1.10;;;11.00;1.00;;;;;;5029551;28;20438;-53
2022/11/21 09:33:57;;;;;;;7.35;1.15;;;10.10;1.00;;;;;;5028874;28;20402;-53
2022/11/21 09:36:23;;;;;;;6.90;1.00;;;10.10;1.00;;;;;;5029494;28;20482;-53
2022/11/21 09:38:51;;;;;;;6.90;1.20;;;10.20;1.00;;;;;;5028956;28;20402;-59
2022/11/21 09:44:32;;;;;;;6.37;0.83;;;10.90;1.00;;;;;;5023888;28;20414;-53
2022/11/21 09:47:26;;;;;;;6.40;0.80;;;11.70;1.00;;;;;;5028762;28;20505;-53
2022/11/21 09:49:57;;;;;;;6.30;1.08;;;13.10;1.00;;;;;;5025897;28;20412;-59
2022/11/21 09:52:45;;;;;;;7.75;0.98;;;13.10;1.00;;;;;;5029769;28;20393;-53
2022/11/21 09:55:34;;;;;;;6.40;1.30;;;11.80;99.90;;;;;;5027627;28;20402;-54
2022/11/21 09:58:08;;;;;;;7.40;1.00;;;10.80;99.90;;;;;;4988963;28;20407;-54
2022/11/21 10:00:34;;;;;;;6.60;0.80;;;10.40;1.00;;;;;;5029167;28;20386;-53
2022/11/21 10:03:00;;;;;;;6.15;1.02;;;10.30;1.00;;;;;;5028002;28;20391;-54
2022/11/21 10:05:36;;;;;;;6.03;1.02;;;10.20;1.00;;;;;;5029179;28;20435;-54
2022/11/21 10:08:26;;;;;;;5.97;0.70;;;10.80;1.00;;;;;;5026973;28;20738;-54
2022/11/21 10:11:05;;;;;;;8.07;1.08;;;11.50;1.00;;;;;;5010760;28;20872;-59
2022/11/21 10:13:52;;;;;;;8.23;1.20;;;11.30;1.00;;;;;;5005959;28;20516;-54
2022/11/21 10:17:03;;;;;;;5.75;1.10;;;11.00;1.00;;;;;;5009179;28;20447;-54
2022/11/21 10:19:58;;;;;;;7.20;1.30;;;11.00;1.00;;;;;;5009356;28;20769;-53
2022/11/21 10:22:39;;;;;;;6.75;1.10;;;10.70;1.00;;;;;;5009000;28;20962;-54
2022/11/21 10:25:13;;;;;;;7.13;0.90;;;10.40;1.00;;;;;;5008405;28;20818;-52
2022/11/21 10:27:57;;;;;;;5.80;1.30;;;10.50;1.00;;;;;;5009259;28;20427;-52
2022/11/21 10:30:23;;;;;;;7.90;1.20;;;11.50;1.00;;;;;;5009301;28;20688;-53
2022/11/21 10:33:00;;;;;;;6.50;1.08;;;12.60;1.00;;;;;;5008734;28;20395;-59
2022/11/21 10:35:36;;;;;;;7.10;1.10;;;12.40;1.00;;;;;;5008967;28;20412;-53
2022/11/21 10:38:21;;;;;;;5.80;0.60;;;10.60;1.00;;;;;;5006835;28;20488;-54
2022/11/21 10:40:52;;;;;;;6.53;1.30;;;11.70;99.90;;;;;;5008651;28;20452;-54
2022/11/21 10:46:11;;;;;;;6.30;1.15;;;10.80;1.00;;;;;;5008025;28;20375;-54
2022/11/21 10:48:36;;;;;;;5.00;1.10;;;9.70;1.00;;;;;;5008756;28;20472;-54
2022/11/21 10:51:44;;;;;;;8.60;1.00;;;9.20;1.00;;;;;;5008094;28;20377;-56
2022/11/21 10:57:19;;;;;;;6.72;2.40;;;8.60;1.00;;;;;;5008286;28;20400;-54
2022/11/21 11:00:13;;;;;;;5.40;1.40;;;9.80;99.90;;;;;;5008181;28;20401;-52
2022/11/21 11:03:00;;;;;;;6.90;1.20;;;8.60;99.90;;;;;;5012640;28;20425;-53
2022/11/21 11:05:28;;;;;;;6.95;1.20;;;8.70;7.90;;;;;;5012791;28;20384;-53
2022/11/21 11:08:11;;;;;;;5.50;0.80;;;8.60;1.00;;;;;;5011980;28;20372;-53
2022/11/21 11:10:43;;;;;;;6.83;0.90;;;8.80;99.90;;;;;;5004229;28;20453;-54
2022/11/21 11:16:03;;;;;;;7.07;1.27;;;8.80;1.00;;;;;;5011798;28;20385;-57
2022/11/21 11:18:33;;;;;;;7.00;1.40;;;8.80;1.00;;;;;;5012252;28;20377;-53
2022/11/21 11:21:20;;;;;;;5.40;1.47;;;9.20;99.90;;;;;;5011810;28;20400;-53
2022/11/21 11:23:47;;;;;;;8.23;2.47;;;9.30;1.00;;;;;;5012219;28;20474;-54
2022/11/21 11:26:30;;;;;;;8.95;2.60;;;9.50;1.00;;;;;;5011187;28;20408;-53
2022/11/21 11:29:15;;;;;;;7.40;1.90;;;9.80;99.90;;;;;;5011251;28;20447;-54
2022/11/21 11:31:46;;;;;;;6.78;1.50;;;10.20;99.90;;;;;;5012303;28;20424;-53
2022/11/21 11:34:16;;;;;;;7.78;1.70;;;10.40;72.90;;;;;;5011330;28;20405;-54
2022/11/21 11:37:05;;;;;;;6.55;1.70;;;10.30;1.00;;;;;;5012121;28;20393;-53
2022/11/21 11:39:36;;;;;;;6.70;1.93;;;10.20;1.00;;;;;;5012017;28;20988;-53
2022/11/21 11:48:28;;;;;;;10.27;2.22;;;10.10;1.00;;;;;;5011587;28;20802;-55
2022/11/21 11:51:03;;;;;;;5.43;1.60;;;10.00;1.00;;;;;;5010948;28;20448;-59
2022/11/21 11:53:36;;;;;;;7.82;1.85;;;10.60;1.00;;;;;;5011319;28;20881;-53
2022/11/21 11:56:11;;;;;;;6.40;1.40;;;9.90;1.00;;;;;;5011015;28;20385;-54
2022/11/21 11:58:43;;;;;;;7.15;1.85;;;9.90;1.00;;;;;;5011646;28;20384;-54
2022/11/21 12:01:20;;;;;;;7.33;1.90;;;9.80;1.00;;;;;;5010886;28;20397;-53
2022/11/21 12:04:01;;;;;;;7.10;2.40;;;9.90;1.00;;;;;;5011345;28;20458;-54
2022/11/21 12:06:29;;;;;;;7.30;2.10;;;10.00;1.00;;;;;;5011355;28;20459;-54
2022/11/21 12:09:10;;;;;;;5.82;1.40;;;10.50;1.00;;;;;;5010663;28;20412;-55
2022/11/21 12:12:06;;;;;;;6.80;1.80;;;10.80;1.00;;;;;;5010927;28;20893;-53
2022/11/21 12:18:02;;;;;;;6.13;1.60;;;11.30;1.00;;;;;;5030978;28;20402;-54
2022/11/21 12:21:00;;;;;;;7.63;1.83;;;11.60;1.00;;;;;;5031023;28;20469;-53
2022/11/21 12:23:40;;;;;;;7.33;1.60;;;11.60;1.00;;;;;;5031047;28;20470;-52
2022/11/21 12:26:24;;;;;;;7.63;1.60;;;11.90;1.00;;;;;;5030212;28;20391;-53
2022/11/21 12:29:19;;;;;;;5.50;1.10;;;12.00;1.00;;;;;;5031201;28;20448;-52
2022/11/21 12:31:56;;;;;;;9.23;1.20;;;12.30;1.00;;;;;;5030802;28;20406;-54
2022/11/21 12:34:33;;;;;;;6.95;0.90;;;12.30;1.00;;;;;;5030604;28;20940;-55
2022/11/21 12:37:04;;;;;;;4.95;0.68;;;12.00;1.00;;;;;;5030064;28;20379;-53
2022/11/21 12:39:44;;;;;;;7.03;0.90;;;11.40;1.00;;;;;;5030904;28;20418;-52
2022/11/21 12:45:26;;;;;;;7.20;0.70;;;11.20;1.00;;;;;;5029948;28;20537;-53
2022/11/21 12:57:02;;;;;;;6.90;0.93;;;11.90;1.00;;;;;;5030319;28;20378;-53
2022/11/21 12:59:32;;;;;;;7.93;1.00;;;12.20;1.00;;;;;;5030218;28;20387;-54
2022/11/21 13:02:08;;;;;;;5.82;0.82;;;12.50;1.00;;;;;;5029717;28;20386;-53
2022/11/21 13:04:37;;;;;;;6.38;0.80;;;12.30;99.90;;;;;;5030355;28;20430;-54
2022/11/21 13:07:03;;;;;;;6.20;0.70;;;12.30;99.90;;;;;;5029306;28;20865;-53
2022/11/21 13:09:45;;;;;;;6.00;0.80;;;12.40;99.90;;;;;;5029946;28;20950;-53
